createdAt,value
2023-04-25T05:03:06.465Z,20.73
2023-04-25T05:04:08.198Z,20.93
2023-04-25T05:05:07.315Z,21.00
2023-04-25T05:06:07.339Z,21.03
2023-04-25T05:07:07.377Z,21.06
2023-04-25T05:08:07.427Z,21.08
2023-04-25T05:09:06.421Z,21.10
2023-04-25T05:10:06.442Z,21.11
2023-04-25T05:11:07.491Z,21.12
2023-04-25T05:12:06.588Z,21.12
2023-04-25T05:13:07.589Z,21.14
2023-04-25T05:14:06.632Z,21.13
2023-04-25T05:15:06.692Z,21.14
2023-04-25T05:16:07.785Z,21.14
2023-04-25T05:17:06.810Z,21.14
2023-04-25T05:18:07.886Z,21.14
2023-04-25T05:19:06.926Z,21.14
2023-04-25T05:20:07.929Z,21.14
2023-04-25T05:21:07.060Z,21.15
2023-04-25T05:22:07.018Z,21.14
2023-04-25T05:23:07.064Z,21.15
2023-04-25T05:24:08.114Z,21.16
2023-04-25T05:25:08.157Z,21.15
2023-04-25T05:26:08.175Z,21.15
2023-04-25T05:27:07.228Z,21.16
2023-04-25T05:28:07.279Z,21.15
2023-04-25T05:29:07.324Z,21.16
2023-04-25T05:30:07.346Z,21.16
2023-04-25T05:31:07.423Z,21.15
2023-04-25T05:32:07.532Z,21.16
2023-04-25T05:33:08.519Z,21.16
2023-04-25T05:34:07.533Z,21.16
2023-04-25T05:35:07.760Z,21.16
2023-04-25T05:36:08.615Z,21.16
2023-04-25T05:37:08.630Z,21.16
2023-04-25T05:38:07.655Z,21.16
2023-04-25T05:39:07.678Z,21.17
2023-04-25T05:40:07.698Z,21.18
2023-04-25T05:41:07.709Z,21.16
2023-04-25T05:42:08.761Z,21.17
2023-04-25T05:43:08.787Z,21.17
2023-04-25T05:44:08.824Z,21.18
2023-04-25T05:45:08.862Z,21.18
2023-04-25T05:46:08.936Z,21.18
2023-04-25T05:47:08.944Z,21.18
2023-04-25T05:48:08.058Z,21.18
2023-04-25T05:49:08.985Z,21.19
2023-04-25T05:50:08.021Z,21.19
2023-04-25T05:51:08.075Z,21.20
2023-04-25T05:52:09.090Z,21.21
2023-04-25T05:53:09.097Z,21.21
2023-04-25T05:54:09.125Z,21.22
2023-04-25T05:55:08.150Z,21.23
2023-04-25T05:56:09.144Z,21.23
2023-04-25T05:57:08.169Z,21.23
2023-04-25T05:58:09.210Z,21.23
2023-04-25T05:59:09.211Z,21.24
2023-04-25T06:00:09.207Z,21.24
2023-04-25T06:01:08.211Z,21.24
2023-04-25T06:03:27.757Z,21.21
2023-04-25T06:04:28.520Z,21.22
2023-04-25T06:05:28.436Z,21.23
2023-04-25T06:06:28.388Z,21.24
2023-04-25T06:07:28.320Z,21.24
2023-04-25T06:08:27.307Z,21.25
2023-04-25T06:09:28.298Z,21.25
2023-04-25T06:10:28.292Z,21.25
2023-04-25T06:11:27.277Z,21.25
2023-04-25T06:12:27.292Z,21.25
2023-04-25T06:13:28.291Z,21.25
2023-04-25T06:14:29.563Z,21.24
2023-04-25T06:15:29.054Z,21.25
2023-04-25T06:16:28.409Z,21.25
2023-04-25T06:17:27.397Z,21.25
2023-04-25T06:18:28.406Z,21.25
2023-04-25T06:19:28.447Z,21.25
2023-04-25T06:20:28.498Z,21.26
2023-04-25T06:21:27.527Z,21.26
2023-04-25T06:22:27.534Z,21.26
2023-04-25T06:23:28.512Z,21.26
2023-04-25T06:24:27.551Z,21.26
2023-04-25T06:25:27.595Z,21.26
2023-04-25T06:26:28.615Z,21.26
2023-04-25T06:27:27.662Z,21.26
2023-04-25T06:28:27.661Z,21.27
2023-04-25T06:29:28.687Z,21.26
2023-04-25T06:30:27.833Z,21.26
2023-04-25T06:31:27.769Z,21.26
2023-04-25T06:32:29.297Z,21.27
2023-04-25T06:33:28.807Z,21.26
2023-04-25T06:34:28.828Z,21.26
2023-04-25T06:35:28.835Z,21.26
2023-04-25T06:36:28.876Z,21.26
2023-04-25T06:37:28.891Z,21.25
2023-04-25T06:38:28.950Z,21.25
2023-04-25T06:39:28.959Z,21.25
2023-04-25T06:40:28.029Z,21.25
2023-04-25T06:41:29.009Z,21.25
2023-04-25T06:42:29.059Z,21.25
2023-04-25T06:43:29.101Z,21.25
2023-04-25T06:44:28.119Z,21.26
2023-04-25T06:45:29.167Z,21.27
2023-04-25T06:46:29.207Z,21.26
2023-04-25T06:47:29.247Z,21.28
2023-04-25T06:48:29.275Z,21.27
2023-04-25T06:49:28.271Z,21.27
2023-04-25T06:50:29.305Z,21.28
2023-04-25T06:51:29.333Z,21.27
2023-04-25T06:52:29.546Z,21.28
2023-04-25T06:53:28.374Z,21.27
2023-04-25T06:54:29.449Z,21.28
2023-04-25T06:55:29.418Z,21.29
2023-04-25T06:56:29.445Z,21.29
2023-04-25T06:57:29.540Z,21.29
2023-04-25T06:58:29.509Z,21.30
2023-04-25T06:59:29.560Z,21.31
2023-04-25T07:00:29.663Z,21.31
2023-04-25T07:01:28.618Z,21.32
2023-04-25T07:02:29.752Z,21.31
2023-04-25T07:03:28.763Z,21.32
2023-04-25T07:04:29.009Z,21.34
2023-04-25T07:05:29.699Z,21.38
2023-04-25T07:06:29.698Z,21.43
2023-04-25T07:07:29.728Z,21.49
2023-04-25T07:08:29.727Z,21.55
2023-04-25T07:09:29.791Z,21.59
2023-04-25T07:10:29.862Z,21.64
2023-04-25T07:11:29.934Z,21.69
2023-04-25T07:12:29.957Z,21.74
2023-04-25T07:13:30.000Z,21.78
2023-04-25T07:14:29.029Z,21.83
2023-04-25T07:15:29.077Z,21.87
2023-04-25T07:16:30.147Z,21.91
2023-04-25T07:17:29.259Z,21.96
2023-04-25T07:18:30.201Z,21.99
2023-04-25T07:19:30.216Z,22.03
2023-04-25T07:20:29.246Z,22.07
2023-04-25T07:21:30.337Z,22.11
2023-04-25T07:22:30.235Z,22.13
2023-04-25T07:23:30.238Z,22.17
2023-04-25T07:24:29.239Z,22.20
2023-04-25T07:25:30.213Z,22.24
2023-04-25T07:26:30.230Z,22.26
2023-04-25T07:27:30.210Z,22.29
2023-04-25T07:28:30.185Z,22.32
2023-04-25T07:29:29.294Z,22.34
2023-04-25T07:30:29.202Z,22.36
2023-04-25T07:31:30.199Z,22.39
2023-04-25T07:32:30.220Z,22.41
2023-04-25T07:33:29.166Z,22.42
2023-04-25T07:34:30.230Z,22.44
2023-04-25T07:35:29.204Z,22.46
2023-04-25T07:36:30.233Z,22.47
2023-04-25T07:37:29.312Z,22.49
2023-04-25T07:38:30.237Z,22.51
2023-04-25T07:39:30.141Z,22.53
2023-04-25T07:40:30.149Z,22.56
2023-04-25T07:41:29.127Z,22.57
2023-04-25T07:42:30.161Z,22.60
2023-04-25T07:43:30.135Z,22.60
2023-04-25T07:44:30.103Z,22.61
2023-04-25T07:45:30.089Z,22.63
2023-04-25T07:46:30.129Z,22.66
2023-04-25T07:47:29.608Z,22.71
2023-04-25T07:48:30.088Z,22.67
2023-04-25T07:49:30.113Z,22.60
2023-04-25T07:50:29.072Z,22.56
2023-04-25T07:51:30.063Z,22.51
2023-04-25T07:52:30.084Z,22.46
2023-04-25T07:53:29.042Z,22.47
2023-04-25T07:54:30.025Z,22.45
2023-04-25T07:55:29.028Z,22.38
2023-04-25T07:56:38.446Z,22.34
2023-04-25T07:57:30.020Z,22.29
2023-04-25T07:58:30.028Z,22.27
2023-04-25T07:59:30.146Z,22.26
2023-04-25T08:00:28.990Z,22.26
2023-04-25T08:01:28.995Z,22.24
2023-04-25T08:02:29.044Z,22.23
2023-04-25T08:03:29.264Z,22.24
2023-04-25T08:04:29.109Z,22.24
2023-04-25T08:05:29.203Z,22.23
2023-04-25T08:06:29.167Z,22.23
2023-04-25T08:07:28.968Z,22.21
2023-04-25T08:08:29.950Z,22.23
2023-04-25T08:09:28.949Z,22.23
2023-04-25T08:10:29.927Z,22.23
2023-04-25T08:11:29.931Z,22.24
2023-04-25T08:12:29.929Z,22.24
2023-04-25T08:13:28.924Z,22.24
2023-04-25T08:14:29.953Z,22.25
2023-04-25T08:15:29.958Z,22.25
2023-04-25T08:16:30.015Z,22.25
2023-04-25T08:17:29.992Z,22.25
2023-04-25T08:18:30.068Z,22.25
2023-04-25T08:19:30.124Z,22.27
2023-04-25T08:20:29.167Z,22.28
2023-04-25T08:21:30.199Z,22.28
2023-04-25T08:22:29.251Z,22.28
2023-04-25T08:23:30.290Z,22.28
2023-04-25T08:24:30.353Z,22.30
2023-04-25T08:25:30.390Z,22.29
2023-04-25T08:26:29.452Z,22.31
2023-04-25T08:27:30.504Z,22.31
2023-04-25T08:28:30.544Z,22.33
2023-04-25T08:29:30.594Z,22.34
2023-04-25T08:30:29.663Z,22.32
2023-04-25T08:31:29.749Z,22.31
2023-04-25T08:32:31.004Z,22.29
2023-04-25T08:33:29.794Z,22.30
2023-04-25T08:34:29.870Z,22.29
2023-04-25T08:35:30.892Z,22.29
2023-04-25T08:36:38.565Z,22.29
2023-04-25T08:37:30.944Z,22.29
2023-04-25T08:38:30.932Z,22.28
2023-04-25T08:39:31.040Z,22.28
2023-04-25T08:40:30.906Z,22.28
2023-04-25T08:41:30.908Z,22.27
2023-04-25T08:42:30.092Z,22.26
2023-04-25T08:43:30.888Z,22.24
2023-04-25T08:44:30.894Z,22.24
2023-04-25T08:45:29.894Z,22.24
2023-04-25T08:46:30.959Z,22.21
2023-04-25T08:47:30.891Z,22.20
2023-04-25T08:48:30.861Z,22.19
2023-04-25T08:49:30.870Z,22.17
2023-04-25T08:50:29.869Z,22.16
2023-04-25T08:51:30.852Z,22.16
2023-04-25T08:52:29.887Z,22.15
2023-04-25T08:53:31.066Z,22.14
2023-04-25T08:54:35.723Z,22.13
2023-04-25T08:55:30.956Z,22.12
2023-04-25T08:56:31.211Z,22.10
2023-04-25T08:57:31.099Z,22.10
2023-04-25T08:58:29.935Z,22.09
2023-04-25T08:59:30.973Z,22.08
2023-04-25T09:00:29.918Z,22.07
2023-04-25T09:01:30.982Z,22.06
2023-04-25T09:02:30.102Z,22.05
2023-04-25T09:03:31.141Z,22.04
2023-04-25T09:04:30.900Z,22.03
2023-04-25T09:05:29.890Z,22.03
2023-04-25T09:06:29.879Z,22.01
2023-04-25T09:07:30.883Z,22.01
2023-04-25T09:08:30.877Z,22.00
2023-04-25T09:09:30.851Z,21.99
2023-04-25T09:11:29.838Z,21.99
2023-04-25T09:12:30.852Z,21.99
2023-04-25T09:13:30.832Z,21.99
2023-04-25T09:14:30.854Z,21.99
2023-04-25T09:15:30.823Z,21.98
2023-04-25T09:16:29.871Z,21.98
2023-04-25T09:17:30.923Z,21.97
2023-04-25T09:18:31.139Z,21.97
2023-04-25T09:19:39.789Z,21.98
2023-04-25T09:20:31.819Z,21.98
2023-04-25T09:21:29.984Z,21.99
2023-04-25T09:22:30.966Z,21.98
2023-04-25T09:23:30.974Z,21.99
2023-04-25T09:24:30.969Z,21.99
2023-04-25T09:25:29.947Z,21.99
2023-04-25T09:26:30.958Z,22.00
2023-04-25T09:27:30.943Z,22.00
2023-04-25T09:28:31.245Z,22.00
2023-04-25T09:29:30.939Z,22.00
2023-04-25T09:30:30.976Z,22.00
2023-04-25T09:31:31.061Z,21.99
2023-04-25T09:32:31.176Z,21.99
2023-04-25T09:33:31.156Z,21.99
2023-04-25T09:34:30.234Z,21.99
2023-04-25T09:35:31.277Z,21.99
2023-04-25T09:36:31.419Z,21.98
2023-04-25T09:37:31.442Z,21.98
2023-04-25T09:38:30.489Z,21.97
2023-04-25T09:39:31.510Z,21.96
2023-04-25T09:40:30.553Z,21.97
2023-04-25T09:41:30.589Z,21.96
2023-04-25T09:42:31.667Z,21.95
2023-04-25T09:43:31.734Z,21.94
2023-04-25T09:44:30.800Z,21.93
2023-04-25T09:45:31.805Z,21.92
2023-04-25T09:46:30.861Z,21.91
2023-04-25T09:47:32.154Z,21.89
2023-04-25T09:48:31.803Z,21.88
2023-04-25T09:49:31.861Z,21.88
2023-04-25T09:50:31.826Z,21.86
2023-04-25T09:51:31.807Z,21.86
2023-04-25T09:52:30.803Z,21.85
2023-04-25T09:53:32.116Z,21.83
2023-04-25T09:54:30.828Z,21.83
2023-04-25T09:55:31.840Z,21.82
2023-04-25T09:56:31.879Z,21.81
2023-04-25T09:57:31.869Z,21.81
2023-04-25T09:58:33.188Z,21.81
2023-04-25T09:59:32.022Z,21.79
2023-04-25T10:00:31.939Z,21.78
2023-04-25T10:01:31.032Z,21.77
2023-04-25T10:02:32.088Z,21.77
2023-04-25T10:03:32.317Z,21.76
2023-04-25T10:04:33.928Z,21.74
2023-04-25T10:05:31.164Z,21.74
2023-04-25T10:06:31.983Z,21.73
2023-04-25T10:07:30.966Z,21.73
2023-04-25T10:08:31.986Z,21.71
2023-04-25T10:09:31.956Z,21.70
2023-04-25T10:10:32.300Z,21.70
2023-04-25T10:11:30.970Z,21.69
2023-04-25T10:12:30.955Z,21.68
2023-04-25T10:13:31.956Z,21.67
2023-04-25T10:14:30.928Z,21.67
2023-04-25T10:15:31.963Z,21.66
2023-04-25T10:16:30.992Z,21.65
2023-04-25T10:17:31.966Z,21.65
2023-04-25T10:18:31.910Z,21.64
2023-04-25T10:19:31.898Z,21.63
2023-04-25T10:20:31.918Z,21.63
2023-04-25T10:21:31.921Z,21.63
2023-04-25T10:22:30.887Z,21.62
2023-04-25T10:23:31.913Z,21.61
2023-04-25T10:24:30.871Z,21.61
2023-04-25T10:25:31.870Z,21.60
2023-04-25T10:26:31.359Z,21.60
2023-04-25T10:27:31.868Z,21.60
2023-04-25T10:28:31.855Z,21.59
2023-04-25T10:29:30.856Z,21.59
2023-04-25T10:30:31.833Z,21.59
2023-04-25T10:31:30.982Z,21.59
2023-04-25T10:32:31.853Z,21.59
2023-04-25T10:33:31.825Z,21.57
2023-04-25T10:34:30.820Z,21.57
2023-04-25T10:35:31.806Z,21.57
2023-04-25T10:36:31.793Z,21.57
2023-04-25T10:37:31.877Z,21.57
2023-04-25T10:38:31.816Z,21.58
2023-04-25T10:39:31.849Z,21.58
2023-04-25T10:40:31.869Z,21.59
2023-04-25T10:41:32.010Z,21.60
2023-04-25T10:42:30.932Z,21.60
2023-04-25T10:43:31.131Z,21.61
2023-04-25T10:44:32.011Z,21.60
2023-04-25T10:45:31.036Z,21.62
2023-04-25T10:46:32.232Z,21.67
2023-04-25T10:47:32.140Z,21.68
2023-04-25T10:48:32.164Z,21.67
2023-04-25T10:49:32.213Z,21.64
2023-04-25T10:50:32.269Z,21.63
2023-04-25T10:51:40.045Z,21.65
2023-04-25T10:52:32.328Z,21.66
2023-04-25T10:53:31.538Z,21.68
2023-04-25T10:54:32.278Z,21.71
2023-04-25T10:55:31.288Z,21.74
2023-04-25T10:56:32.299Z,21.75
2023-04-25T10:57:31.258Z,21.79
2023-04-25T10:58:32.289Z,21.81
2023-04-25T10:59:32.254Z,21.81
2023-04-25T11:01:32.290Z,21.87
2023-04-25T11:02:32.332Z,21.87
2023-04-25T11:03:31.405Z,21.86
2023-04-25T11:04:32.962Z,21.87
2023-04-25T11:05:31.415Z,21.87
2023-04-25T11:06:32.197Z,21.87
2023-04-25T11:07:31.209Z,21.91
2023-04-25T11:08:32.207Z,21.91
2023-04-25T11:09:31.213Z,21.90
2023-04-25T11:10:32.185Z,21.90
2023-04-25T11:11:31.215Z,21.92
2023-04-25T11:12:31.164Z,21.97
2023-04-25T11:13:31.181Z,21.98
2023-04-25T11:14:32.160Z,21.99
2023-04-25T11:15:31.168Z,22.01
2023-04-25T11:16:31.154Z,22.05
2023-04-25T11:17:31.242Z,22.07
2023-04-25T11:18:32.373Z,22.09
2023-04-25T11:19:31.199Z,22.10
2023-04-25T11:20:32.165Z,22.12
2023-04-25T11:21:32.119Z,22.14
2023-04-25T11:22:32.125Z,22.16
2023-04-25T11:23:31.113Z,22.19
2023-04-25T11:24:31.164Z,22.22
2023-04-25T11:25:32.497Z,22.23
2023-04-25T11:26:32.093Z,22.28
2023-04-25T11:27:32.078Z,22.31
2023-04-25T11:28:32.094Z,22.25
2023-04-25T11:29:32.085Z,22.18
2023-04-25T11:30:31.078Z,22.13
2023-04-25T11:31:31.085Z,22.08
2023-04-25T11:32:32.194Z,22.05
2023-04-25T11:33:32.073Z,21.97
2023-04-25T11:34:32.094Z,21.94
2023-04-25T11:35:32.080Z,21.87
2023-04-25T11:36:32.035Z,21.80
2023-04-25T11:37:32.028Z,21.74
2023-04-25T11:38:31.171Z,21.69
2023-04-25T11:39:31.061Z,21.67
2023-04-25T11:40:32.104Z,21.66
2023-04-25T11:41:32.137Z,21.65
2023-04-25T11:42:31.116Z,21.65
2023-04-25T11:43:31.221Z,21.66
2023-04-25T11:44:32.125Z,21.67
2023-04-25T11:45:32.130Z,21.68
2023-04-25T11:46:31.210Z,21.68
2023-04-25T11:47:31.145Z,21.70
2023-04-25T11:48:31.149Z,21.70
2023-04-25T11:49:32.393Z,21.71
2023-04-25T11:50:32.133Z,21.72
2023-04-25T11:51:31.190Z,21.73
2023-04-25T11:52:32.181Z,21.74
2023-04-25T11:53:32.219Z,21.75
2023-04-25T11:54:32.375Z,21.75
2023-04-25T11:55:32.371Z,21.76
2023-04-25T11:56:31.418Z,21.76
2023-04-25T11:57:31.588Z,21.76
2023-04-25T11:58:31.528Z,21.77
2023-04-25T11:59:32.564Z,21.77
2023-04-25T12:00:31.618Z,21.77
2023-04-25T12:01:33.652Z,21.78
2023-04-25T12:02:32.757Z,21.78
2023-04-25T12:03:31.905Z,21.78
2023-04-25T12:04:31.889Z,21.78
2023-04-25T12:05:33.560Z,21.78
2023-04-25T12:06:31.653Z,21.79
2023-04-25T12:07:32.596Z,21.78
2023-04-25T12:08:32.590Z,21.79
2023-04-25T12:09:32.595Z,21.79
2023-04-25T12:10:32.568Z,21.80
2023-04-25T12:11:32.569Z,21.80
2023-04-25T12:12:32.567Z,21.80
2023-04-25T12:13:32.580Z,21.80
2023-04-25T12:14:32.554Z,21.80
2023-04-25T12:15:31.532Z,21.81
2023-04-25T12:16:31.639Z,21.81
2023-04-25T12:17:31.569Z,21.81
2023-04-25T12:18:32.588Z,21.81
2023-04-25T12:19:32.511Z,21.79
2023-04-25T12:20:31.509Z,21.80
2023-04-25T12:21:31.532Z,21.79
2023-04-25T12:22:31.511Z,21.80
2023-04-25T12:23:32.495Z,21.80
2023-04-25T12:24:31.509Z,21.80
2023-04-25T12:25:32.464Z,21.79
2023-04-25T12:26:31.479Z,21.79
2023-04-25T12:27:32.469Z,21.79
2023-04-25T12:28:31.457Z,21.79
2023-04-25T12:29:41.869Z,21.79
2023-04-25T12:30:32.462Z,21.79
2023-04-25T12:31:32.451Z,21.79
2023-04-25T12:32:32.477Z,21.79
2023-04-25T12:33:32.451Z,21.80
2023-04-25T12:34:32.407Z,21.81
2023-04-25T12:35:31.417Z,21.80
2023-04-25T12:36:32.423Z,21.80
2023-04-25T12:37:32.415Z,21.81
2023-04-25T12:38:31.413Z,21.80
2023-04-25T12:39:32.396Z,21.81
2023-04-25T12:40:32.391Z,21.81
2023-04-25T12:41:31.372Z,21.81
2023-04-25T12:42:32.381Z,21.81
2023-04-25T12:43:32.350Z,21.81
2023-04-25T12:44:31.346Z,21.82
2023-04-25T12:45:31.414Z,21.82
2023-04-25T12:46:32.377Z,21.82
2023-04-25T12:47:31.369Z,21.82
2023-04-25T12:48:32.342Z,21.83
2023-04-25T12:49:31.316Z,21.83
2023-04-25T12:50:31.323Z,21.84
2023-04-25T12:51:32.370Z,21.85
2023-04-25T12:52:32.313Z,21.86
2023-04-25T12:53:33.805Z,21.88
2023-04-25T12:54:32.309Z,21.88
2023-04-25T12:55:32.280Z,21.89
2023-04-25T12:56:31.281Z,21.89
2023-04-25T12:57:32.267Z,21.90
2023-04-25T12:58:32.263Z,21.90
2023-04-25T12:59:32.286Z,21.90
2023-04-25T13:00:32.287Z,21.90
2023-04-25T13:01:31.860Z,21.90
2023-04-25T13:02:32.331Z,21.90
2023-04-25T13:03:32.484Z,21.90
2023-04-25T13:04:32.426Z,21.90
2023-04-25T13:05:31.208Z,21.90
2023-04-25T13:06:32.243Z,21.90
2023-04-25T13:07:31.209Z,21.90
2023-04-25T13:08:31.203Z,21.91
2023-04-25T13:09:32.198Z,21.91
2023-04-25T13:10:32.174Z,21.91
2023-04-25T13:11:32.353Z,21.90
2023-04-25T13:12:32.183Z,21.91
2023-04-25T13:13:31.162Z,21.90
2023-04-25T13:14:32.169Z,21.90
2023-04-25T13:15:31.172Z,21.90
2023-04-25T13:16:32.177Z,21.88
2023-04-25T13:17:32.223Z,21.88
2023-04-25T13:18:31.148Z,21.87
2023-04-25T13:19:31.120Z,21.86
2023-04-25T13:20:31.128Z,21.87
2023-04-25T13:21:31.103Z,21.85
2023-04-25T13:22:32.134Z,21.84
2023-04-25T13:23:32.101Z,21.83
2023-04-25T13:24:31.115Z,21.82
2023-04-25T13:25:32.086Z,21.82
2023-04-25T13:26:31.075Z,21.81
2023-04-25T13:27:31.076Z,21.81
2023-04-25T13:28:32.091Z,21.80
2023-04-25T13:29:31.064Z,21.80
2023-04-25T13:30:32.075Z,21.80
2023-04-25T13:31:32.109Z,21.80
2023-04-25T13:32:31.088Z,21.80
2023-04-25T13:33:32.114Z,21.78
2023-04-25T13:34:31.130Z,21.77
2023-04-25T13:35:31.155Z,21.77
2023-04-25T13:36:32.220Z,21.78
2023-04-25T13:37:32.231Z,21.77
2023-04-25T13:38:32.275Z,21.77
2023-04-25T13:39:31.308Z,21.77
2023-04-25T13:40:32.339Z,21.77
2023-04-25T13:41:31.402Z,21.76
2023-04-25T13:42:32.433Z,21.76
2023-04-25T13:43:32.474Z,21.75
2023-04-25T13:44:32.478Z,21.75
2023-04-25T13:45:33.391Z,21.75
2023-04-25T13:46:45.562Z,21.76
2023-04-25T13:47:32.519Z,21.75
2023-04-25T13:48:32.508Z,21.74
2023-04-25T13:49:31.559Z,21.73
2023-04-25T13:50:31.528Z,21.72
2023-04-25T13:51:32.684Z,21.72
2023-04-25T13:52:32.491Z,21.70
2023-04-25T13:53:31.478Z,21.69
2023-04-25T13:54:31.466Z,21.69
2023-04-25T13:55:31.494Z,21.67
2023-04-25T13:56:32.484Z,21.66
2023-04-25T13:57:32.455Z,21.66
2023-04-25T13:58:31.456Z,21.65
2023-04-25T13:59:32.446Z,21.64
2023-04-25T14:00:32.442Z,21.63
2023-04-25T14:01:32.493Z,21.62
2023-04-25T14:02:32.630Z,21.62
2023-04-25T14:03:31.593Z,21.61
2023-04-25T14:04:32.418Z,21.60
2023-04-25T14:05:32.429Z,21.58
2023-04-25T14:06:32.400Z,21.58
2023-04-25T14:07:31.418Z,21.57
2023-04-25T14:08:31.385Z,21.57
2023-04-25T14:09:31.389Z,21.56
2023-04-25T14:10:32.368Z,21.56
2023-04-25T14:11:31.370Z,21.55
2023-04-25T14:12:32.354Z,21.55
2023-04-25T14:13:32.378Z,21.54
2023-04-25T14:14:32.398Z,21.55
2023-04-25T14:15:31.518Z,21.54
2023-04-25T14:16:31.578Z,21.54
2023-04-25T14:17:32.641Z,21.54
2023-04-25T14:18:32.558Z,21.54
2023-04-25T14:19:32.627Z,21.54
2023-04-25T14:20:32.630Z,21.54
2023-04-25T14:21:31.703Z,21.53
2023-04-25T14:22:32.757Z,21.54
2023-04-25T14:23:31.734Z,21.54
2023-04-25T14:24:31.756Z,21.55
2023-04-25T14:25:31.779Z,21.55
2023-04-25T14:26:32.838Z,21.56
2023-04-25T14:27:31.857Z,21.56
2023-04-25T14:28:31.854Z,21.57
2023-04-25T14:29:32.885Z,21.58
2023-04-25T14:30:31.890Z,21.58
2023-04-25T14:31:32.927Z,21.60
2023-04-25T14:32:31.945Z,21.60
2023-04-25T14:33:32.891Z,21.61
2023-04-25T14:34:32.904Z,21.61
2023-04-25T14:35:32.889Z,21.62
2023-04-25T14:36:32.887Z,21.62
2023-04-25T14:37:32.906Z,21.64
2023-04-25T14:38:32.890Z,21.63
2023-04-25T14:39:32.877Z,21.63
2023-04-25T14:40:32.877Z,21.64
2023-04-25T14:41:31.897Z,21.65
2023-04-25T14:42:32.904Z,21.65
2023-04-25T14:43:31.925Z,21.65
2023-04-25T14:44:32.975Z,21.66
2023-04-25T14:45:33.027Z,21.66
2023-04-25T14:46:32.138Z,21.67
2023-04-25T14:47:33.134Z,21.67
2023-04-25T14:48:33.139Z,21.68
2023-04-25T14:49:32.085Z,21.68
2023-04-25T14:50:33.120Z,21.68
2023-04-25T14:51:32.131Z,21.69
2023-04-25T14:52:33.095Z,21.69
2023-04-25T14:53:33.197Z,21.68
2023-04-25T14:54:32.145Z,21.70
2023-04-25T14:55:32.151Z,21.70
2023-04-25T14:56:33.215Z,21.70
2023-04-25T14:57:33.174Z,21.70
2023-04-25T14:58:32.221Z,21.70
2023-04-25T14:59:32.297Z,21.71
2023-04-25T15:00:32.389Z,21.72
2023-04-25T15:01:33.437Z,21.72
2023-04-25T15:02:33.560Z,21.73
2023-04-25T15:03:33.600Z,21.73
2023-04-25T15:04:33.540Z,21.75
2023-04-25T15:05:33.570Z,21.75
2023-04-25T15:06:33.547Z,21.75
2023-04-25T15:07:32.580Z,21.76
2023-04-25T15:08:32.594Z,21.76
2023-04-25T15:09:32.666Z,21.76
2023-04-25T15:10:33.691Z,21.75
2023-04-25T15:11:32.854Z,21.75
2023-04-25T15:12:33.856Z,21.74
2023-04-25T15:13:32.826Z,21.73
2023-04-25T15:14:32.828Z,21.73
2023-04-25T15:15:33.838Z,21.72
2023-04-25T15:16:33.829Z,21.71
2023-04-25T15:17:33.833Z,21.70
2023-04-25T15:18:32.838Z,21.70
2023-04-25T15:19:32.829Z,21.70
2023-04-25T15:20:32.853Z,21.69
2023-04-25T15:21:33.860Z,21.68
2023-04-25T15:22:33.874Z,21.67
2023-04-25T15:23:32.899Z,21.66
2023-04-25T15:24:33.917Z,21.65
2023-04-25T15:25:33.964Z,21.64
2023-04-25T15:26:33.983Z,21.64
2023-04-25T15:27:33.992Z,21.63
2023-04-25T15:28:32.997Z,21.62
2023-04-25T15:29:33.051Z,21.62
